Time,TemperatureF,DewpointF,PressureIn,WindDirection,WindDirectionDegrees,WindSpeedMPH,WindSpeedGustMPH,Humidity,HourlyPrecipIn,Conditions,Clouds,dailyrainin,SoftwareType,DateUTC
2013-01-06 00:02:00,33.6,21.2,30.07,ESE,122,3.0,5.0,60,0.00,,,0.04,meteohub,2013-01-06 05:02:00,
2013-01-06 00:07:00,33.8,20.7,30.07,North,10,8.0,12.0,58,0.00,,,0.00,meteohub,2013-01-06 05:07:00,
2013-01-06 00:12:00,33.6,21.2,30.07,North,10,7.0,12.0,60,0.00,,,0.00,meteohub,2013-01-06 05:12:00,
2013-01-06 00:17:00,33.4,21.6,30.07,SE,145,3.0,12.0,61,0.00,,,0.00,meteohub,2013-01-06 05:17:00,
2013-01-06 00:22:00,34.3,20.7,30.07,SE,145,4.0,20.0,57,0.00,,,0.00,meteohub,2013-01-06 05:22:00,
2013-01-06 00:27:00,34.9,20.8,30.07,West,280,5.0,20.0,56,0.00,,,0.00,meteohub,2013-01-06 05:27:00,
2013-01-06 00:32:00,35.1,20.5,30.07,SSW,212,0.0,20.0,55,0.00,,,0.00,meteohub,2013-01-06 05:32:00,
2013-01-06 00:37:00,35.2,20.7,30.07,NNW,348,4.0,12.0,55,0.00,,,0.00,meteohub,2013-01-06 05:37:00,
2013-01-06 00:42:00,35.4,20.8,30.04,SW,235,3.0,12.0,55,0.00,,,0.00,meteohub,2013-01-06 05:42:00,
2013-01-06 00:47:00,35.4,20.8,30.04,WNW,302,6.0,8.0,55,0.00,,,0.00,meteohub,2013-01-06 05:47:00,
2013-01-06 00:52:00,35.4,20.8,30.04,SSW,212,5.0,10.0,55,0.00,,,0.00,meteohub,2013-01-06 05:52:00,
2013-01-06 00:57:00,35.2,20.7,30.04,SSW,212,12.0,12.0,55,0.00,,,0.00,meteohub,2013-01-06 05:57:00,
2013-01-06 01:02:00,35.4,20.8,30.04,SW,235,17.0,17.0,55,0.00,,,0.00,meteohub,2013-01-06 06:02:00,
2013-01-06 01:07:00,35.6,20.7,30.04,SSE,168,4.0,19.0,54,0.00,,,0.00,meteohub,2013-01-06 06:07:00,
2013-01-06 01:12:00,35.8,20.3,30.04,ESE,122,9.0,20.0,53,0.00,,,0.00,meteohub,2013-01-06 06:12:00,
2013-01-06 01:17:00,35.8,20.3,30.04,South,190,5.0,20.0,53,0.00,,,0.00,meteohub,2013-01-06 06:17:00,
2013-01-06 01:22:00,35.6,20.7,30.04,SSW,212,6.0,20.0,54,0.00,,,0.00,meteohub,2013-01-06 06:22:00,
2013-01-06 01:27:00,35.8,20.8,30.04,WSW,258,6.0,18.0,54,0.00,,,0.00,meteohub,2013-01-06 06:27:00,
2013-01-06 01:32:00,35.8,20.3,30.04,SSW,212,6.0,12.0,53,0.00,,,0.00,meteohub,2013-01-06 06:32:00,
2013-01-06 01:37:00,35.8,20.3,30.04,WSW,258,8.0,15.0,53,0.00,,,0.00,meteohub,2013-01-06 06:37:00,
2013-01-06 01:47:00,35.8,20.3,30.04,WSW,258,8.0,15.0,53,0.00,,,0.00,meteohub,2013-01-06 06:47:00,
2013-01-06 01:52:00,35.6,20.1,30.04,WSW,258,6.0,11.0,53,0.00,,,0.00,meteohub,2013-01-06 06:52:00,
2013-01-06 01:57:00,35.6,20.1,30.04,West,280,5.0,13.0,53,0.00,,,0.00,meteohub,2013-01-06 06:57:00,
2013-01-06 02:02:00,35.6,20.1,30.04,West,280,8.0,13.0,53,0.00,,,0.00,meteohub,2013-01-06 07:02:00,
2013-01-06 02:07:00,35.6,20.1,30.04,WSW,258,5.0,15.0,53,0.00,,,0.00,meteohub,2013-01-06 07:07:00,
2013-01-06 02:12:00,35.6,20.1,30.04,SW,235,4.0,15.0,53,0.00,,,0.00,meteohub,2013-01-06 07:12:00,
2013-01-06 02:17:00,35.4,20.5,30.04,NNE,32,4.0,15.0,54,0.00,,,0.00,meteohub,2013-01-06 07:17:00,
2013-01-06 02:22:00,35.4,20.5,30.04,SW,235,7.0,15.0,54,0.00,,,0.00,meteohub,2013-01-06 07:22:00,
2013-01-06 02:27:00,35.4,20.5,30.04,SSW,212,4.0,13.0,54,0.00,,,0.00,meteohub,2013-01-06 07:27:00,
2013-01-06 02:32:00,35.1,20.1,30.04,East,100,5.0,15.0,54,0.00,,,0.00,meteohub,2013-01-06 07:32:00,
2013-01-06 02:37:00,35.2,20.3,30.04,South,190,9.0,16.0,54,0.00,,,0.00,meteohub,2013-01-06 07:37:00,
2013-01-06 02:42:00,35.2,20.7,30.04,SSE,168,6.0,20.0,55,0.00,,,0.00,meteohub,2013-01-06 07:42:00,
2013-01-06 02:47:00,35.2,20.3,30.04,WSW,258,7.0,20.0,54,0.00,,,0.00,meteohub,2013-01-06 07:47:00,
2013-01-06 02:52:00,35.4,20.8,30.04,South,190,7.0,20.0,55,0.00,,,0.00,meteohub,2013-01-06 07:52:00,
2013-01-06 02:57:00,35.4,20.5,30.04,SSW,212,5.0,15.0,54,0.00,,,0.00,meteohub,2013-01-06 07:57:00,
2013-01-06 03:02:00,35.4,20.5,30.04,West,280,3.0,15.0,54,0.00,,,0.00,meteohub,2013-01-06 08:02:00,
2013-01-06 03:07:00,35.4,20.5,30.04,WSW,258,10.0,15.0,54,0.00,,,0.00,meteohub,2013-01-06 08:07:00,
2013-01-06 03:12:00,35.2,20.7,30.04,WSW,258,5.0,13.0,55,0.00,,,0.00,meteohub,2013-01-06 08:12:00,
2013-01-06 03:17:00,35.2,20.7,30.04,SSE,168,13.0,13.0,55,0.00,,,0.00,meteohub,2013-01-06 08:17:00,
2013-01-06 03:22:00,35.2,20.7,30.04,WSW,258,7.0,13.0,55,0.00,,,0.00,meteohub,2013-01-06 08:22:00,
2013-01-06 03:27:00,35.4,20.8,30.04,SW,235,10.0,15.0,55,0.00,,,0.00,meteohub,2013-01-06 08:27:00,
2013-01-06 03:32:00,35.1,20.5,30.04,SE,145,6.0,26.0,55,0.00,,,0.00,meteohub,2013-01-06 08:32:00,
2013-01-06 03:37:00,35.2,20.3,30.04,NNE,32,5.0,26.0,54,0.00,,,0.00,meteohub,2013-01-06 08:37:00,
2013-01-06 03:42:00,35.2,20.3,30.04,WSW,258,8.0,26.0,54,0.00,,,0.00,meteohub,2013-01-06 08:42:00,
2013-01-06 03:47:00,35.2,20.3,30.04,WSW,258,4.0,17.0,54,0.00,,,0.00,meteohub,2013-01-06 08:47:00,
2013-01-06 03:52:00,34.9,19.9,30.04,WSW,258,7.0,13.0,54,0.00,,,0.00,meteohub,2013-01-06 08:52:00,
2013-01-06 03:57:00,34.9,19.9,30.01,SSW,212,10.0,13.0,54,0.00,,,0.00,meteohub,2013-01-06 08:57:00,
2013-01-06 04:02:00,34.9,19.9,30.01,West,280,13.0,19.0,54,0.00,,,0.00,meteohub,2013-01-06 09:02:00,
2013-01-06 04:07:00,34.9,19.9,30.01,South,190,4.0,19.0,54,0.00,,,0.00,meteohub,2013-01-06 09:07:00,
2013-01-06 04:12:00,34.7,19.8,30.01,WSW,258,6.0,19.0,54,0.00,,,0.00,meteohub,2013-01-06 09:12:00,
2013-01-06 04:17:00,34.7,19.8,30.01,SSW,212,5.0,15.0,54,0.00,,,0.00,meteohub,2013-01-06 09:17:00,
2013-01-06 04:22:00,34.9,19.9,30.01,SSE,168,4.0,18.0,54,0.00,,,0.00,meteohub,2013-01-06 09:22:00,
2013-01-06 04:27:00,34.9,19.9,30.01,SSE,168,11.0,18.0,54,0.00,,,0.00,meteohub,2013-01-06 09:27:00,
2013-01-06 04:32:00,34.5,19.6,30.01,WSW,258,3.0,18.0,54,0.00,,,0.00,meteohub,2013-01-06 09:32:00,
2013-01-06 04:37:00,34.5,19.6,30.01,SSE,168,7.0,16.0,54,0.00,,,0.00,meteohub,2013-01-06 09:37:00,
2013-01-06 04:42:00,34.5,19.6,29.99,SSW,212,8.0,16.0,54,0.00,,,0.00,meteohub,2013-01-06 09:42:00,
2013-01-06 04:47:00,34.5,19.6,29.99,South,190,5.0,17.0,54,0.00,,,0.00,meteohub,2013-01-06 09:47:00,
2013-01-06 04:52:00,34.7,19.8,29.99,ENE,78,5.0,17.0,54,0.00,,,0.00,meteohub,2013-01-06 09:52:00,
2013-01-06 04:57:00,34.5,19.6,29.99,SW,235,13.0,17.0,54,0.00,,,0.00,meteohub,2013-01-06 09:57:00,
2013-01-06 05:02:00,34.5,19.6,29.99,SSE,168,7.0,16.0,54,0.00,,,0.00,meteohub,2013-01-06 10:02:00,
2013-01-06 05:07:00,34.5,19.6,29.99,South,190,3.0,15.0,54,0.00,,,0.00,meteohub,2013-01-06 10:07:00,
2013-01-06 05:12:00,34.5,19.6,29.99,SW,235,7.0,15.0,54,0.00,,,0.00,meteohub,2013-01-06 10:12:00,
2013-01-06 05:17:00,34.7,19.4,29.99,SSE,168,8.0,17.0,53,0.00,,,0.00,meteohub,2013-01-06 10:17:00,
2013-01-06 05:22:00,34.5,19.2,29.99,SE,145,11.0,17.0,53,0.00,,,0.00,meteohub,2013-01-06 10:22:00,
2013-01-06 05:27:00,34.3,19.4,29.99,WSW,258,7.0,17.0,54,0.00,,,0.00,meteohub,2013-01-06 10:27:00,
2013-01-06 05:32:00,34.5,19.6,29.99,ENE,78,4.0,13.0,54,0.00,,,0.00,meteohub,2013-01-06 10:32:00,
2013-01-06 05:37:00,34.3,19.4,29.99,SSE,168,4.0,17.0,54,0.00,,,0.00,meteohub,2013-01-06 10:37:00,
2013-01-06 05:42:00,34.3,19.4,29.99,SSE,168,8.0,17.0,54,0.00,,,0.00,meteohub,2013-01-06 10:42:00,
2013-01-06 05:47:00,34.3,19.4,29.99,ESE,122,8.0,16.0,54,0.00,,,0.00,meteohub,2013-01-06 10:47:00,
2013-01-06 05:52:00,34.2,19.2,29.99,SW,235,7.0,16.0,54,0.00,,,0.00,meteohub,2013-01-06 10:52:00,
2013-01-06 05:57:00,34.2,19.2,29.99,SSW,212,4.0,16.0,54,0.00,,,0.00,meteohub,2013-01-06 10:57:00,
2013-01-06 06:02:00,34.0,19.0,29.99,South,190,4.0,14.0,54,0.00,,,0.00,meteohub,2013-01-06 11:02:00,
2013-01-06 06:07:00,34.0,19.0,29.99,SSW,212,5.0,14.0,54,0.00,,,0.00,meteohub,2013-01-06 11:07:00,
2013-01-06 06:12:00,34.0,19.0,29.99,West,280,6.0,11.0,54,0.00,,,0.00,meteohub,2013-01-06 11:12:00,
2013-01-06 06:17:00,34.0,19.0,29.99,SSW,212,4.0,11.0,54,0.00,,,0.00,meteohub,2013-01-06 11:17:00,
2013-01-06 06:22:00,33.8,19.0,29.99,ESE,122,6.0,11.0,54,0.00,,,0.00,meteohub,2013-01-06 11:22:00,
2013-01-06 06:27:00,33.6,19.2,29.99,SSE,168,2.0,16.0,55,0.00,,,0.00,meteohub,2013-01-06 11:27:00,
2013-01-06 06:32:00,33.8,19.0,29.99,NE,55,8.0,16.0,54,0.00,,,0.00,meteohub,2013-01-06 11:32:00,
2013-01-06 06:37:00,33.8,19.0,29.99,South,190,3.0,16.0,54,0.00,,,0.00,meteohub,2013-01-06 11:37:00,
2013-01-06 06:42:00,33.6,19.2,29.99,West,280,3.0,12.0,55,0.00,,,0.00,meteohub,2013-01-06 11:42:00,
2013-01-06 06:47:00,33.8,19.4,29.99,WNW,302,5.0,12.0,55,0.00,,,0.00,meteohub,2013-01-06 11:47:00,
2013-01-06 06:52:00,33.6,19.2,29.99,WNW,302,7.0,8.0,55,0.00,,,0.00,meteohub,2013-01-06 11:52:00,
2013-01-06 06:57:00,33.6,19.2,29.99,SSW,212,6.0,15.0,55,0.00,,,0.00,meteohub,2013-01-06 11:57:00,
2013-01-06 07:02:00,33.8,19.4,29.99,WSW,258,4.0,15.0,55,0.00,,,0.00,meteohub,2013-01-06 12:02:00,
2013-01-06 07:07:00,33.6,19.6,29.99,SW,235,2.0,15.0,56,0.00,,,0.00,meteohub,2013-01-06 12:07:00,
2013-01-06 07:12:00,33.3,19.2,29.99,SW,235,4.0,13.0,56,0.00,,,0.00,meteohub,2013-01-06 12:12:00,
2013-01-06 07:17:00,33.3,19.2,29.99,WNW,302,0.0,13.0,56,0.00,,,0.00,meteohub,2013-01-06 12:17:00,
2013-01-06 07:22:00,32.9,19.4,29.99,ENE,78,2.0,10.0,57,0.00,,,0.00,meteohub,2013-01-06 12:22:00,
2013-01-06 07:27:00,32.7,19.2,30.01,SSE,168,6.0,8.0,57,0.00,,,0.00,meteohub,2013-01-06 12:27:00,
2013-01-06 07:32:00,32.7,19.2,30.01,SW,235,6.0,11.0,57,0.00,,,0.00,meteohub,2013-01-06 12:32:00,
2013-01-06 07:37:00,32.5,19.0,30.01,North,10,4.0,11.0,57,0.00,,,0.00,meteohub,2013-01-06 12:37:00,
2013-01-06 07:42:00,32.4,19.2,29.99,NNE,32,2.0,11.0,58,0.00,,,0.00,meteohub,2013-01-06 12:42:00,
2013-01-06 07:47:00,32.5,19.4,29.99,NE,55,4.0,9.0,58,0.00,,,0.00,meteohub,2013-01-06 12:47:00,
2013-01-06 07:52:00,32.0,19.4,29.99,NE,55,3.0,7.0,59,0.00,,,0.00,meteohub,2013-01-06 12:52:00,
2013-01-06 07:57:00,32.2,19.6,29.99,NNE,32,3.0,6.0,59,0.00,,,0.00,meteohub,2013-01-06 12:57:00,
2013-01-06 08:02:00,32.4,19.8,29.99,East,100,5.0,6.0,59,0.00,,,0.00,meteohub,2013-01-06 13:02:00,
2013-01-06 08:07:00,32.0,19.8,29.99,ESE,122,5.0,8.0,60,0.00,,,0.00,meteohub,2013-01-06 13:07:00,
2013-01-06 08:12:00,32.4,20.1,29.99,SE,145,6.0,8.0,60,0.00,,,0.00,meteohub,2013-01-06 13:12:00,
2013-01-06 08:17:00,32.2,19.9,29.99,NNE,32,5.0,8.0,60,0.00,,,0.00,meteohub,2013-01-06 13:17:00,
2013-01-06 08:22:00,32.4,20.1,29.99,ESE,122,2.0,8.0,60,0.00,,,0.00,meteohub,2013-01-06 13:22:00,
2013-01-06 08:27:00,32.7,20.5,29.99,WNW,302,3.0,8.0,60,0.00,,,0.00,meteohub,2013-01-06 13:27:00,
2013-01-06 08:32:00,32.5,20.7,29.99,NNW,348,5.0,6.0,61,0.00,,,0.00,meteohub,2013-01-06 13:32:00,
2013-01-06 08:37:00,32.7,20.5,29.99,WSW,258,7.0,7.0,60,0.00,,,0.00,meteohub,2013-01-06 13:37:00,
2013-01-06 08:42:00,33.3,20.8,30.01,North,10,3.0,8.0,60,0.00,,,0.00,meteohub,2013-01-06 13:42:00,
2013-01-06 08:47:00,33.8,21.0,30.01,SSW,212,4.0,13.0,59,0.00,,,0.00,meteohub,2013-01-06 13:47:00,
2013-01-06 08:52:00,34.0,21.2,30.01,WSW,258,4.0,13.0,59,0.00,,,0.00,meteohub,2013-01-06 13:52:00,
2013-01-06 08:57:00,34.3,21.2,30.04,WNW,302,8.0,13.0,58,0.00,,,0.00,meteohub,2013-01-06 13:57:00,
2013-01-06 09:02:00,34.5,21.4,30.04,SW,235,6.0,13.0,58,0.00,,,0.00,meteohub,2013-01-06 14:02:00,
2013-01-06 09:07:00,34.9,21.2,30.04,NW,325,3.0,13.0,57,0.00,,,0.00,meteohub,2013-01-06 14:07:00,
2013-01-06 09:12:00,35.1,21.4,30.01,WSW,258,5.0,10.0,57,0.00,,,0.00,meteohub,2013-01-06 14:12:00,
2013-01-06 09:17:00,35.2,21.6,30.01,WSW,258,11.0,11.0,57,0.00,,,0.00,meteohub,2013-01-06 14:17:00,
2013-01-06 09:22:00,35.4,21.4,30.01,NNW,348,6.0,12.0,56,0.00,,,0.00,meteohub,2013-01-06 14:22:00,
2013-01-06 09:27:00,35.6,21.6,30.01,WSW,258,3.0,21.0,56,0.00,,,0.00,meteohub,2013-01-06 14:27:00,
2013-01-06 09:32:00,35.8,21.2,30.01,WNW,302,5.0,21.0,55,0.00,,,0.00,meteohub,2013-01-06 14:32:00,
2013-01-06 09:37:00,36.0,21.4,30.01,SSW,212,8.0,21.0,55,0.00,,,0.00,meteohub,2013-01-06 14:37:00,
2013-01-06 09:42:00,36.1,21.6,30.01,WNW,302,9.0,16.0,55,0.00,,,0.00,meteohub,2013-01-06 14:42:00,
2013-01-06 09:47:00,36.3,21.7,30.01,WSW,258,5.0,16.0,55,0.00,,,0.00,meteohub,2013-01-06 14:47:00,
2013-01-06 09:52:00,36.5,21.6,30.01,South,190,7.0,16.0,54,0.00,,,0.00,meteohub,2013-01-06 14:52:00,
2013-01-06 09:57:00,36.5,21.6,30.04,SSE,168,5.0,15.0,54,0.00,,,0.00,meteohub,2013-01-06 14:57:00,
2013-01-06 10:02:00,36.7,21.6,30.04,NE,55,6.0,15.0,54,0.00,,,0.00,meteohub,2013-01-06 15:02:00,
2013-01-06 10:07:00,36.9,21.7,30.04,NNW,348,5.0,14.0,54,0.00,,,0.00,meteohub,2013-01-06 15:07:00,
2013-01-06 10:12:00,37.0,21.9,30.01,NNW,348,11.0,19.0,54,0.00,,,0.00,meteohub,2013-01-06 15:12:00,
2013-01-06 10:17:00,37.2,22.1,30.01,WSW,258,11.0,19.0,54,0.00,,,0.00,meteohub,2013-01-06 15:17:00,
2013-01-06 10:22:00,37.2,21.7,30.01,WNW,302,11.0,15.0,53,0.00,,,0.00,meteohub,2013-01-06 15:22:00,
2013-01-06 10:27:00,37.4,21.4,30.01,South,190,4.0,15.0,52,0.00,,,0.00,meteohub,2013-01-06 15:27:00,
2013-01-06 10:32:00,37.6,22.1,30.01,WSW,258,3.0,15.0,53,0.00,,,0.00,meteohub,2013-01-06 15:32:00,
2013-01-06 10:37:00,37.6,22.1,30.01,South,190,9.0,12.0,53,0.00,,,0.00,meteohub,2013-01-06 15:37:00,
2013-01-06 10:42:00,37.6,22.1,30.01,West,280,10.0,15.0,53,0.00,,,0.00,meteohub,2013-01-06 15:42:00,
2013-01-06 10:47:00,37.8,22.3,30.01,NNW,348,8.0,15.0,53,0.00,,,0.00,meteohub,2013-01-06 15:47:00,
2013-01-06 10:52:00,37.9,21.9,30.01,NNW,348,12.0,15.0,52,0.00,,,0.00,meteohub,2013-01-06 15:52:00,
2013-01-06 10:57:00,37.9,21.9,30.01,WSW,258,7.0,15.0,52,0.00,,,0.00,meteohub,2013-01-06 15:57:00,
2013-01-06 11:02:00,38.1,22.1,30.01,WNW,302,6.0,15.0,52,0.04,,,0.04,meteohub,2013-01-06 16:02:00,
2013-01-06 11:07:00,38.1,22.1,30.01,SW,235,4.0,15.0,52,0.04,,,0.04,meteohub,2013-01-06 16:07:00,
2013-01-06 11:12:00,38.3,22.3,29.99,SSE,168,5.0,15.0,52,0.04,,,0.04,meteohub,2013-01-06 16:12:00,
2013-01-06 11:17:00,38.5,22.5,29.99,WNW,302,7.0,12.0,52,0.04,,,0.04,meteohub,2013-01-06 16:17:00,
2013-01-06 11:22:00,38.5,22.5,29.99,WNW,302,5.0,12.0,52,0.04,,,0.04,meteohub,2013-01-06 16:22:00,
2013-01-06 11:27:00,38.5,22.5,29.96,NW,325,5.0,12.0,52,0.04,,,0.04,meteohub,2013-01-06 16:27:00,
2013-01-06 11:32:00,38.5,22.5,29.96,NNW,348,8.0,16.0,52,0.04,,,0.04,meteohub,2013-01-06 16:32:00,
2013-01-06 11:37:00,38.7,22.6,29.96,WNW,302,3.0,16.0,52,0.04,,,0.04,meteohub,2013-01-06 16:37:00,
2013-01-06 11:42:00,38.7,22.1,29.99,NW,325,7.0,15.0,51,0.04,,,0.04,meteohub,2013-01-06 16:42:00,
2013-01-06 11:47:00,38.7,22.6,29.99,NNW,348,5.0,15.0,52,0.04,,,0.04,meteohub,2013-01-06 16:47:00,
2013-01-06 11:52:00,38.8,22.3,29.99,South,190,9.0,15.0,51,0.04,,,0.04,meteohub,2013-01-06 16:52:00,
2013-01-06 11:57:00,38.8,22.8,29.99,SSW,212,2.0,13.0,52,0.00,,,0.04,meteohub,2013-01-06 16:57:00,
2013-01-06 12:02:00,38.8,22.8,29.99,SE,145,5.0,11.0,52,0.00,,,0.04,meteohub,2013-01-06 17:02:00,
2013-01-06 12:07:00,38.8,22.3,29.99,West,280,5.0,11.0,51,0.00,,,0.04,meteohub,2013-01-06 17:07:00,
2013-01-06 12:12:00,38.8,22.8,29.99,East,100,7.0,11.0,52,0.00,,,0.04,meteohub,2013-01-06 17:12:00,
2013-01-06 12:17:00,38.7,22.6,29.99,NNW,348,6.0,21.0,52,0.00,,,0.04,meteohub,2013-01-06 17:17:00,
2013-01-06 12:22:00,38.7,22.6,29.99,NW,325,3.0,21.0,52,0.00,,,0.04,meteohub,2013-01-06 17:22:00,
2013-01-06 12:32:00,38.7,22.6,29.99,SSW,212,5.0,14.0,52,0.00,,,0.04,meteohub,2013-01-06 17:32:00,
2013-01-06 12:37:00,38.7,22.1,29.99,SSW,212,7.0,14.0,51,0.00,,,0.04,meteohub,2013-01-06 17:37:00,
2013-01-06 12:42:00,38.7,22.1,29.99,WNW,302,11.0,15.0,51,0.00,,,0.04,meteohub,2013-01-06 17:42:00,
2013-01-06 12:47:00,38.7,22.1,29.99,NNW,348,6.0,15.0,51,0.00,,,0.04,meteohub,2013-01-06 17:47:00,
2013-01-06 12:52:00,38.8,22.8,29.99,SSW,212,6.0,15.0,52,0.00,,,0.04,meteohub,2013-01-06 17:52:00,
2013-01-06 12:57:00,38.8,22.3,29.96,SSW,212,8.0,13.0,51,0.00,,,0.04,meteohub,2013-01-06 17:57:00,
2013-01-06 13:02:00,38.8,22.8,29.96,WNW,302,16.0,16.0,52,0.00,,,0.04,meteohub,2013-01-06 18:02:00,
2013-01-06 13:07:00,39.0,22.5,29.96,South,190,5.0,16.0,51,0.00,,,0.04,meteohub,2013-01-06 18:07:00,
2013-01-06 13:17:00,39.2,22.1,29.96,NNW,348,8.0,16.0,50,0.00,,,0.04,meteohub,2013-01-06 18:17:00,
2013-01-06 13:22:00,39.4,22.3,29.96,WNW,302,5.0,16.0,50,0.00,,,0.04,meteohub,2013-01-06 18:22:00,
2013-01-06 13:27:00,39.4,22.8,29.93,WNW,302,4.0,16.0,51,0.00,,,0.04,meteohub,2013-01-06 18:27:00,
2013-01-06 13:32:00,39.4,22.3,29.93,SSW,212,6.0,17.0,50,0.00,,,0.04,meteohub,2013-01-06 18:32:00,
2013-01-06 13:42:00,39.2,22.1,29.93,West,280,9.0,11.0,50,0.04,,,0.08,meteohub,2013-01-06 18:42:00,
2013-01-06 13:47:00,39.2,22.1,29.93,SW,235,11.0,20.0,50,0.04,,,0.08,meteohub,2013-01-06 18:47:00,
2013-01-06 13:52:00,39.2,22.1,29.93,SW,235,6.0,20.0,50,0.04,,,0.08,meteohub,2013-01-06 18:52:00,
2013-01-06 13:57:00,39.4,22.3,29.93,WSW,258,4.0,20.0,50,0.04,,,0.08,meteohub,2013-01-06 18:57:00,
2013-01-06 14:07:00,39.4,22.3,29.93,SW,235,5.0,16.0,50,0.04,,,0.08,meteohub,2013-01-06 19:07:00,
2013-01-06 14:12:00,39.4,22.3,29.93,WSW,258,9.0,16.0,50,0.04,,,0.08,meteohub,2013-01-06 19:12:00,
2013-01-06 14:17:00,39.2,22.1,29.93,SSE,168,7.0,16.0,50,0.04,,,0.08,meteohub,2013-01-06 19:17:00,
2013-01-06 14:27:00,39.2,22.1,29.93,WSW,258,20.0,20.0,50,0.04,,,0.08,meteohub,2013-01-06 19:27:00,
2013-01-06 14:32:00,39.4,22.3,29.93,SSE,168,13.0,20.0,50,0.00,,,0.08,meteohub,2013-01-06 19:32:00,
2013-01-06 14:37:00,39.4,22.3,29.93,WSW,258,4.0,20.0,50,0.00,,,0.08,meteohub,2013-01-06 19:37:00,
2013-01-06 14:47:00,39.4,22.3,29.90,West,280,8.0,15.0,50,0.00,,,0.08,meteohub,2013-01-06 19:47:00,
2013-01-06 14:52:00,39.4,22.3,29.90,WSW,258,12.0,15.0,50,0.00,,,0.08,meteohub,2013-01-06 19:52:00,
2013-01-06 15:02:00,39.2,22.1,29.93,ESE,122,4.0,20.0,50,0.00,,,0.08,meteohub,2013-01-06 20:02:00,
2013-01-06 15:07:00,39.2,22.1,29.93,SSW,212,6.0,20.0,50,0.00,,,0.08,meteohub,2013-01-06 20:07:00,
2013-01-06 15:17:00,39.2,22.1,29.93,SW,235,3.0,12.0,50,0.00,,,0.08,meteohub,2013-01-06 20:17:00,
2013-01-06 15:22:00,39.2,22.1,29.93,West,280,7.0,12.0,50,0.00,,,0.08,meteohub,2013-01-06 20:22:00,
2013-01-06 15:27:00,39.2,22.1,29.93,WSW,258,9.0,11.0,50,0.00,,,0.08,meteohub,2013-01-06 20:27:00,
2013-01-06 15:32:00,39.0,21.9,29.93,SW,235,3.0,17.0,50,0.00,,,0.08,meteohub,2013-01-06 20:32:00,
2013-01-06 15:37:00,38.8,21.9,29.93,SSW,212,3.0,17.0,50,0.00,,,0.08,meteohub,2013-01-06 20:37:00,
2013-01-06 15:42:00,39.0,21.9,29.93,West,280,9.0,17.0,50,0.00,,,0.08,meteohub,2013-01-06 20:42:00,
2013-01-06 15:47:00,38.8,21.9,29.93,South,190,8.0,16.0,50,0.00,,,0.08,meteohub,2013-01-06 20:47:00,
2013-01-06 15:52:00,38.7,21.7,29.93,South,190,7.0,15.0,50,0.00,,,0.08,meteohub,2013-01-06 20:52:00,
2013-01-06 15:57:00,38.8,21.9,29.93,WSW,258,6.0,13.0,50,0.00,,,0.08,meteohub,2013-01-06 20:57:00,
2013-01-06 16:02:00,38.8,21.9,29.93,SSE,168,2.0,13.0,50,0.00,,,0.08,meteohub,2013-01-06 21:02:00,
2013-01-06 16:07:00,38.8,21.9,29.93,SW,235,9.0,13.0,50,0.00,,,0.08,meteohub,2013-01-06 21:07:00,
2013-01-06 16:12:00,38.7,21.7,29.93,SSW,212,9.0,13.0,50,0.00,,,0.08,meteohub,2013-01-06 21:12:00,
2013-01-06 16:17:00,38.7,21.7,29.93,WSW,258,7.0,16.0,50,0.00,,,0.08,meteohub,2013-01-06 21:17:00,
2013-01-06 16:27:00,38.5,21.6,29.93,WSW,258,3.0,16.0,50,0.05,,,0.13,meteohub,2013-01-06 21:27:00,
2013-01-06 16:32:00,38.5,21.6,29.93,WSW,258,5.0,14.0,50,0.05,,,0.13,meteohub,2013-01-06 21:32:00,
2013-01-06 16:37:00,38.3,21.4,29.93,South,190,13.0,13.0,50,0.05,,,0.13,meteohub,2013-01-06 21:37:00,
2013-01-06 16:42:00,38.1,21.2,29.96,WSW,258,8.0,17.0,50,0.05,,,0.13,meteohub,2013-01-06 21:42:00,
2013-01-06 16:52:00,38.1,21.2,29.96,WSW,258,5.0,19.0,50,0.05,,,0.13,meteohub,2013-01-06 21:52:00,
2013-01-06 16:57:00,38.1,21.2,29.96,SSW,212,4.0,19.0,50,0.05,,,0.13,meteohub,2013-01-06 21:57:00,
2013-01-06 17:02:00,37.9,21.0,29.96,ESE,122,4.0,16.0,50,0.05,,,0.13,meteohub,2013-01-06 22:02:00,
2013-01-06 17:07:00,37.9,21.0,29.96,WSW,258,7.0,12.0,50,0.05,,,0.13,meteohub,2013-01-06 22:07:00,
2013-01-06 17:12:00,37.9,21.0,29.96,SW,235,5.0,12.0,50,0.05,,,0.13,meteohub,2013-01-06 22:12:00,
2013-01-06 17:17:00,37.8,20.8,29.96,SSW,212,4.0,12.0,50,0.05,,,0.13,meteohub,2013-01-06 22:17:00,
2013-01-06 17:22:00,37.8,20.8,29.96,SW,235,3.0,9.0,50,0.00,,,0.13,meteohub,2013-01-06 22:22:00,
2013-01-06 17:27:00,37.6,20.7,29.96,SSE,168,19.0,19.0,50,0.00,,,0.13,meteohub,2013-01-06 22:27:00,
2013-01-06 17:32:00,37.6,20.7,29.96,SW,235,3.0,19.0,50,0.00,,,0.13,meteohub,2013-01-06 22:32:00,
2013-01-06 17:37:00,37.6,20.7,29.96,ENE,78,3.0,19.0,50,0.00,,,0.13,meteohub,2013-01-06 22:37:00,
2013-01-06 17:42:00,37.8,20.8,29.96,West,280,8.0,19.0,50,0.00,,,0.13,meteohub,2013-01-06 22:42:00,
2013-01-06 17:47:00,37.6,20.7,29.96,NNW,348,6.0,18.0,50,0.00,,,0.13,meteohub,2013-01-06 22:47:00,
2013-01-06 17:52:00,37.6,20.7,29.96,SW,235,10.0,13.0,50,0.00,,,0.13,meteohub,2013-01-06 22:52:00,
2013-01-06 17:57:00,37.6,20.7,29.99,SSW,212,5.0,16.0,50,0.00,,,0.13,meteohub,2013-01-06 22:57:00,
2013-01-06 18:02:00,37.6,20.7,29.99,SSW,212,3.0,16.0,50,0.00,,,0.13,meteohub,2013-01-06 23:02:00,
2013-01-06 18:07:00,37.6,20.7,29.99,WNW,302,4.0,16.0,50,0.00,,,0.13,meteohub,2013-01-06 23:07:00,
2013-01-06 18:12:00,37.6,20.7,29.99,WSW,258,4.0,13.0,50,0.00,,,0.13,meteohub,2013-01-06 23:12:00,
2013-01-06 18:17:00,37.4,21.0,29.99,SSW,212,12.0,13.0,51,0.00,,,0.13,meteohub,2013-01-06 23:17:00,
2013-01-06 18:22:00,37.6,20.7,29.99,South,190,3.0,13.0,50,0.00,,,0.13,meteohub,2013-01-06 23:22:00,
2013-01-06 18:27:00,37.4,20.5,29.99,SW,235,5.0,16.0,50,0.00,,,0.13,meteohub,2013-01-06 23:27:00,
2013-01-06 18:32:00,37.6,20.7,29.99,South,190,6.0,16.0,50,0.00,,,0.13,meteohub,2013-01-06 23:32:00,
2013-01-06 18:37:00,37.4,20.5,29.99,SSW,212,7.0,16.0,50,0.00,,,0.13,meteohub,2013-01-06 23:37:00,
2013-01-06 18:42:00,37.4,21.0,29.99,SSW,212,4.0,13.0,51,0.00,,,0.13,meteohub,2013-01-06 23:42:00,
2013-01-06 18:47:00,37.4,21.0,29.99,SW,235,5.0,11.0,51,0.00,,,0.13,meteohub,2013-01-06 23:47:00,
2013-01-06 18:52:00,37.4,21.0,29.99,SSE,168,4.0,17.0,51,0.00,,,0.13,meteohub,2013-01-06 23:52:00,
2013-01-06 19:02:00,37.2,20.8,29.96,WSW,258,7.0,17.0,51,0.00,,,0.13,meteohub,2013-01-07 00:02:00,
2013-01-06 19:12:00,37.2,21.2,29.96,SSE,168,7.0,12.0,52,0.00,,,0.13,meteohub,2013-01-07 00:12:00,
2013-01-06 19:17:00,37.2,21.2,29.96,South,190,7.0,15.0,52,0.00,,,0.13,meteohub,2013-01-07 00:17:00,
2013-01-06 19:22:00,37.0,21.0,29.96,SSE,168,13.0,15.0,52,0.00,,,0.13,meteohub,2013-01-07 00:22:00,
2013-01-06 19:27:00,37.2,21.2,29.96,SSE,168,5.0,15.0,52,0.00,,,0.13,meteohub,2013-01-07 00:27:00,
2013-01-06 19:32:00,37.0,21.0,29.96,ESE,122,4.0,14.0,52,0.00,,,0.13,meteohub,2013-01-07 00:32:00,
2013-01-06 19:37:00,37.0,21.0,29.96,SSW,212,4.0,13.0,52,0.00,,,0.13,meteohub,2013-01-07 00:37:00,
2013-01-06 19:42:00,37.0,21.0,29.96,WSW,258,12.0,13.0,52,0.00,,,0.13,meteohub,2013-01-07 00:42:00,
2013-01-06 19:47:00,37.0,21.0,29.96,South,190,5.0,15.0,52,0.00,,,0.13,meteohub,2013-01-07 00:47:00,
2013-01-06 19:52:00,36.9,21.4,29.96,SSE,168,7.0,15.0,53,0.00,,,0.13,meteohub,2013-01-07 00:52:00,
2013-01-06 20:02:00,37.0,21.0,29.96,SSE,168,6.0,15.0,52,0.00,,,0.13,meteohub,2013-01-07 01:02:00,
2013-01-06 20:07:00,37.0,21.6,29.96,WNW,302,6.0,15.0,53,0.00,,,0.13,meteohub,2013-01-07 01:07:00,
2013-01-06 20:12:00,37.0,21.6,29.99,NW,325,3.0,15.0,53,0.00,,,0.13,meteohub,2013-01-07 01:12:00,
2013-01-06 20:17:00,37.0,21.6,29.99,West,280,2.0,12.0,53,0.00,,,0.13,meteohub,2013-01-07 01:17:00,
2013-01-06 20:22:00,37.0,21.6,29.99,SSW,212,5.0,13.0,53,0.00,,,0.13,meteohub,2013-01-07 01:22:00,
2013-01-06 20:27:00,37.0,21.6,29.99,SW,235,4.0,13.0,53,0.00,,,0.13,meteohub,2013-01-07 01:27:00,
2013-01-06 20:32:00,37.0,21.6,29.99,ENE,78,4.0,16.0,53,0.00,,,0.13,meteohub,2013-01-07 01:32:00,
2013-01-06 20:37:00,37.0,21.6,29.99,North,10,0.0,16.0,53,0.00,,,0.13,meteohub,2013-01-07 01:37:00,
2013-01-06 20:42:00,37.0,21.6,29.99,SSE,168,9.0,16.0,53,0.00,,,0.13,meteohub,2013-01-07 01:42:00,
2013-01-06 20:47:00,37.0,21.6,29.99,ENE,78,4.0,14.0,53,0.00,,,0.13,meteohub,2013-01-07 01:47:00,
2013-01-06 20:52:00,37.0,21.6,29.99,WSW,258,0.0,14.0,53,0.00,,,0.13,meteohub,2013-01-07 01:52:00,
2013-01-06 20:57:00,37.0,21.6,29.99,SSE,168,4.0,14.0,53,0.00,,,0.13,meteohub,2013-01-07 01:57:00,
2013-01-06 21:02:00,37.0,21.9,29.99,NW,325,5.0,8.0,54,0.00,,,0.13,meteohub,2013-01-07 02:02:00,
2013-01-06 21:07:00,37.0,21.6,29.99,WSW,258,8.0,8.0,53,0.00,,,0.13,meteohub,2013-01-07 02:07:00,
2013-01-06 21:12:00,37.2,21.7,29.99,South,190,5.0,12.0,53,0.00,,,0.13,meteohub,2013-01-07 02:12:00,
2013-01-06 21:17:00,37.2,21.7,29.99,WNW,302,3.0,17.0,53,0.00,,,0.13,meteohub,2013-01-07 02:17:00,
2013-01-06 21:22:00,37.0,21.6,29.99,WSW,258,2.0,17.0,53,0.00,,,0.13,meteohub,2013-01-07 02:22:00,
2013-01-06 21:27:00,37.0,21.9,29.99,South,190,12.0,17.0,54,0.00,,,0.13,meteohub,2013-01-07 02:27:00,
2013-01-06 21:32:00,37.0,21.9,29.99,North,10,5.0,13.0,54,0.00,,,0.13,meteohub,2013-01-07 02:32:00,
2013-01-06 21:37:00,37.0,21.9,29.99,WNW,302,8.0,13.0,54,0.00,,,0.13,meteohub,2013-01-07 02:37:00,
2013-01-06 21:42:00,36.9,21.7,29.99,WNW,302,3.0,15.0,54,0.00,,,0.13,meteohub,2013-01-07 02:42:00,
2013-01-06 21:47:00,37.0,21.9,29.99,SW,235,7.0,15.0,54,0.00,,,0.13,meteohub,2013-01-07 02:47:00,
2013-01-06 21:52:00,37.0,21.9,29.99,WSW,258,11.0,15.0,54,0.00,,,0.13,meteohub,2013-01-07 02:52:00,
2013-01-06 21:57:00,37.0,21.9,29.99,SSE,168,19.0,19.0,54,0.00,,,0.13,meteohub,2013-01-07 02:57:00,
2013-01-06 22:02:00,37.0,22.5,29.99,SW,235,13.0,21.0,55,0.00,,,0.13,meteohub,2013-01-07 03:02:00,
2013-01-06 22:07:00,37.0,22.5,29.99,SSW,212,13.0,21.0,55,0.00,,,0.13,meteohub,2013-01-07 03:07:00,
2013-01-06 22:12:00,37.0,22.5,30.01,WNW,302,8.0,21.0,55,0.00,,,0.13,meteohub,2013-01-07 03:12:00,
2013-01-06 22:17:00,37.0,22.5,30.01,WNW,302,11.0,20.0,55,0.00,,,0.13,meteohub,2013-01-07 03:17:00,
2013-01-06 22:22:00,36.9,22.6,30.01,West,280,7.0,25.0,56,0.00,,,0.13,meteohub,2013-01-07 03:22:00,
2013-01-06 22:27:00,37.0,22.8,30.01,South,190,6.0,25.0,56,0.00,,,0.13,meteohub,2013-01-07 03:27:00,
2013-01-06 22:32:00,36.9,22.6,30.01,SSW,212,5.0,21.0,56,0.00,,,0.13,meteohub,2013-01-07 03:32:00,
2013-01-06 22:37:00,36.9,23.2,30.01,West,280,11.0,21.0,57,0.00,,,0.13,meteohub,2013-01-07 03:37:00,
2013-01-06 22:42:00,36.9,23.2,30.04,NNW,348,6.0,21.0,57,0.00,,,0.13,meteohub,2013-01-07 03:42:00,
2013-01-06 22:47:00,36.9,23.2,30.04,WNW,302,11.0,15.0,57,0.00,,,0.13,meteohub,2013-01-07 03:47:00,
2013-01-06 22:52:00,36.9,23.2,30.04,NNW,348,15.0,15.0,57,0.00,,,0.13,meteohub,2013-01-07 03:52:00,
2013-01-06 22:57:00,36.7,23.0,30.04,North,10,17.0,19.0,57,0.00,,,0.13,meteohub,2013-01-07 03:57:00,
2013-01-06 23:02:00,36.5,23.2,30.04,North,10,22.0,26.0,58,0.00,,,0.13,meteohub,2013-01-07 04:02:00,
2013-01-06 23:07:00,36.3,23.0,30.04,NNW,348,13.0,26.0,58,0.00,,,0.13,meteohub,2013-01-07 04:07:00,
2013-01-06 23:12:00,36.3,23.4,30.04,North,10,14.0,26.0,59,0.00,,,0.13,meteohub,2013-01-07 04:12:00,
2013-01-06 23:17:00,36.1,23.2,30.04,NW,325,22.0,24.0,59,0.00,,,0.13,meteohub,2013-01-07 04:17:00,
2013-01-06 23:22:00,36.1,23.2,30.04,NNW,348,5.0,24.0,59,0.00,,,0.13,meteohub,2013-01-07 04:22:00,
2013-01-06 23:27:00,35.8,23.4,30.04,WNW,302,4.0,22.0,60,0.00,,,0.13,meteohub,2013-01-07 04:27:00,
2013-01-06 23:32:00,35.8,23.4,30.04,West,280,11.0,22.0,60,0.00,,,0.13,meteohub,2013-01-07 04:32:00,
2013-01-06 23:37:00,35.8,23.4,30.04,WNW,302,6.0,17.0,60,0.00,,,0.13,meteohub,2013-01-07 04:37:00,
2013-01-06 23:42:00,35.8,23.4,30.07,NNW,348,15.0,20.0,60,0.00,,,0.13,meteohub,2013-01-07 04:42:00,
2013-01-06 23:47:00,35.6,23.2,30.07,WNW,302,8.0,22.0,60,0.00,,,0.13,meteohub,2013-01-07 04:47:00,
2013-01-06 23:52:00,35.6,23.2,30.07,NNW,348,13.0,22.0,60,0.00,,,0.13,meteohub,2013-01-07 04:52:00,
2013-01-06 23:57:00,35.6,23.2,30.04,SSW,212,2.0,20.0,60,0.00,,,0.13,meteohub,2013-01-07 04:57:00,